Time;durP1;ratioP1;P1;durP2;ratioP2;P2;SDS_P1;SDS_P2;PMS_P1;PMS_P2;Temp;Humidity;BMP_temperature;BMP_pressure;BME280_temperature;BME280_humidity;BME280_pressure;Samples;Min_cycle;Max_cycle;Signal;HPM_P1;HPM_P2
2022/01/30 00:00:00;;;;;;;1.35;0.77;;;;;;;4.23;38.31;93018.66;4995896;28;20030;-90
2022/01/30 00:02:30;;;;;;;1.05;0.70;;;;;;;4.28;38.73;93016.16;4995755;28;20368;-89
2022/01/30 00:05:16;;;;;;;0.73;0.60;;;;;;;4.30;39.40;93006.34;4979254;28;20116;-90
2022/01/30 00:08:10;;;;;;;0.60;0.60;;;;;;;4.66;39.85;93051.00;4994082;28;20088;-89
2022/01/30 00:10:43;;;;;;;0.65;0.60;;;;;;;4.44;39.97;92993.84;4995345;28;20048;-89
2022/01/30 00:13:17;;;;;;;0.75;0.68;;;;;;;4.78;39.88;93038.72;4980354;28;20101;-89
2022/01/30 00:16:08;;;;;;;;;;;;;;;;;;;;;
2022/01/30 00:19:06;;;;;;;0.30;0.30;;;;;;;4.58;40.33;92968.41;4966865;28;20046;-89
2022/01/30 00:25:07;;;;;;;0.80;0.60;;;;;;;4.73;39.88;92970.44;5011677;28;20399;-89
2022/01/30 00:28:10;;;;;;;1.85;0.90;;;;;;;4.72;39.61;92955.88;4996181;28;20049;-89
2022/01/30 00:30:53;;;;;;;5.80;2.42;;;;;;;4.84;40.28;92943.63;4991774;28;20039;-88
2022/01/30 00:33:51;;;;;;;;;;;;;;;;;;;;;
2022/01/30 00:36:32;;;;;;;16.27;6.30;;;;;;;4.83;40.16;92938.66;4979606;28;20116;-89
2022/01/30 00:39:09;;;;;;;6.28;2.20;;;;;;;4.83;36.46;92939.44;4994998;28;20073;-88
2022/01/30 00:41:48;;;;;;;5.68;2.33;;;;;;;4.80;36.39;92921.78;4982932;28;20398;-88
2022/01/30 00:44:27;;;;;;;6.15;2.20;;;;;;;4.96;35.88;92953.88;4994924;28;20049;-90
2022/01/30 00:47:26;;;;;;;;;;;;;;;;;;;;;
2022/01/30 00:49:57;;;;;;;3.63;1.63;;;;;;;4.65;39.14;92922.34;4994930;28;20064;-89
2022/01/30 00:52:24;;;;;;;2.95;1.50;;;;;;;4.63;38.63;92916.59;4979228;28;20519;-89
2022/01/30 00:55:31;;;;;;;;;;;;;;;;;;;;;
2022/01/30 00:58:19;;;;;;;;;;;;;;;;;;;;;
2022/01/30 01:01:16;;;;;;;1.33;0.70;;;;;;;4.50;41.07;92911.75;4995114;28;20038;-88
2022/01/30 01:03:51;;;;;;;1.15;0.70;;;;;;;4.47;41.02;92909.63;5011508;28;20060;-88
2022/01/30 01:06:39;;;;;;;;;;;;;;;;;;;;;
2022/01/30 01:09:21;;;;;;;1.15;0.80;;;;;;;4.53;41.20;92916.47;4965331;28;20044;-89
2022/01/30 01:26:40;;;;;;;0.40;0.40;;;;;;;4.72;41.53;92888.44;4988277;28;20116;-89
2022/01/30 01:29:58;;;;;;;0.73;0.50;;;;;;;4.89;40.91;92899.56;4969221;28;20034;-89
2022/01/30 01:32:32;;;;;;;0.50;0.50;;;;;;;5.13;41.22;92939.03;4974608;28;20035;-89
2022/01/30 01:35:00;;;;;;;0.75;0.60;;;;;;;4.86;41.42;92888.88;4990731;28;20149;-89
2022/01/30 01:37:44;;;;;;;0.50;0.50;;;;;;;4.98;41.16;92911.09;4975211;28;20129;-89
2022/01/30 01:40:21;;;;;;;1.20;0.70;;;;;;;4.94;40.92;92881.47;4961890;28;20046;-88
2022/01/30 01:42:55;;;;;;;0.80;0.60;;;;;;;4.97;41.30;92880.97;4975580;28;20069;-89
2022/01/30 01:48:48;;;;;;;0.50;0.50;;;;;;;4.94;41.04;92875.50;4979494;28;20101;-88
2022/01/30 01:52:02;;;;;;;1.23;0.60;;;;;;;5.03;41.58;92888.84;4987850;28;20073;-89
2022/01/30 01:54:46;;;;;;;0.47;0.47;;;;;;;5.36;41.53;92903.50;4955405;28;20088;-89
2022/01/30 01:57:27;;;;;;;0.45;0.43;;;;;;;5.18;41.24;92866.44;4956869;28;20059;-88
2022/01/30 02:00:16;;;;;;;1.02;0.47;;;;;;;5.19;40.83;92849.06;4949154;28;20047;-88
2022/01/30 02:03:02;;;;;;;0.35;0.32;;;;;;;5.74;40.51;92919.97;4968403;28;20747;-89
2022/01/30 02:05:57;;;;;;;0.50;0.50;;;;;;;5.38;40.85;92844.28;4976160;28;20044;-89
2022/01/30 02:08:31;;;;;;;0.45;0.45;;;;;;;5.31;41.15;92833.34;4958766;28;20126;-88
2022/01/30 02:11:12;;;;;;;1.00;0.70;;;;;;;5.31;40.98;92833.34;4958588;28;20050;-88
2022/01/30 02:27:46;;;;;;;0.50;0.43;;;;;;;6.12;39.90;92872.25;4959398;28;20042;-88
2022/01/30 02:30:18;;;;;;;0.50;0.50;;;;;;;6.18;40.18;92867.88;4958153;28;20034;-89
2022/01/30 02:32:54;;;;;;;0.75;0.52;;;;;;;6.29;40.34;92856.53;4954485;28;20046;-89
2022/01/30 02:35:29;;;;;;;1.05;0.57;;;;;;;5.82;40.07;92797.41;4974344;28;20050;-89
2022/01/30 02:38:10;;;;;;;0.50;0.50;;;;;;;6.25;39.03;92793.06;4958716;28;20506;-89
2022/01/30 02:40:42;;;;;;;1.40;0.60;;;;;;;6.37;38.36;92788.44;4975383;28;20134;-89
2022/01/30 02:43:18;;;;;;;0.40;0.40;;;;;;;6.60;38.05;92782.06;4989875;28;20022;-89
2022/01/30 02:52:06;;;;;;;0.70;0.50;;;;;;;7.35;36.75;92775.75;4915476;29;20048;-89
2022/01/30 02:54:56;;;;;;;0.47;0.47;;;;;;;7.37;36.59;92769.25;4912683;29;20183;-89
2022/01/30 02:57:56;;;;;;;0.60;0.50;;;;;;;7.39;36.78;92761.19;4952709;28;20050;-89
2022/01/30 03:00:33;;;;;;;0.63;0.47;;;;;;;7.46;36.76;92782.53;4977222;28;20046;-88
2022/01/30 03:03:01;;;;;;;0.90;0.52;;;;;;;7.66;36.74;92759.09;4962729;28;20081;-88
2022/01/30 03:05:44;;;;;;;0.40;0.40;;;;;;;7.85;36.42;92764.56;4950177;28;20114;-88
2022/01/30 03:08:18;;;;;;;0.55;0.47;;;;;;;8.05;35.42;92762.97;4944224;28;20047;-88
2022/01/30 03:11:14;;;;;;;0.77;0.50;;;;;;;8.27;35.80;92813.00;4946869;28;20043;-88
2022/01/30 03:14:17;;;;;;;0.45;0.40;;;;;;;7.86;36.19;92757.53;4930253;28;20039;-89
2022/01/30 03:16:53;;;;;;;1.42;0.65;;;;;;;8.52;34.62;92798.38;4957678;28;20038;-88
2022/01/30 03:19:44;;;;;;;0.40;0.40;;;;;;;8.25;34.95;92755.09;4975527;28;20113;-89
2022/01/30 03:22:16;;;;;;;0.40;0.40;;;;;;;8.55;34.23;92761.31;4982993;28;20057;-88
2022/01/30 03:25:33;;;;;;;1.55;0.50;;;;;;;8.52;34.40;92751.41;5013671;28;20114;-88
2022/01/30 03:28:29;;;;;;;0.40;0.40;;;;;;;9.08;34.11;92811.22;4997851;28;20050;-88
2022/01/30 03:31:33;;;;;;;0.30;0.30;;;;;;;9.14;33.65;92804.94;5000453;28;20386;-88
2022/01/30 03:34:21;;;;;;;0.52;0.50;;;;;;;9.21;33.38;92757.63;5006035;28;20077;-89
2022/01/30 03:36:57;;;;;;;0.65;0.60;;;;;;;8.71;33.85;92735.94;4995746;28;20413;-88
2022/01/30 03:39:40;;;;;;;0.88;0.60;;;;;;;8.87;33.12;92721.78;4996458;28;20064;-88
2022/01/30 03:42:32;;;;;;;0.40;0.40;;;;;;;9.09;33.62;92770.22;5013239;28;20037;-89
2022/01/30 03:45:28;;;;;;;2.15;0.57;;;;;;;8.69;33.64;92736.22;4995038;28;20041;-88
2022/01/30 03:48:08;;;;;;;0.40;0.40;;;;;;;8.50;33.85;92735.25;4976267;28;20518;-88
2022/01/30 03:50:56;;;;;;;0.30;0.30;;;;;;;8.78;33.11;92731.22;4976375;28;20879;-88
2022/01/30 03:53:34;;;;;;;1.15;0.73;;;;;;;8.72;33.88;92746.13;4985362;28;20030;-88
2022/01/30 03:56:35;;;;;;;;;;;;;;;;;;;;;
2022/01/30 03:59:06;;;;;;;0.95;0.40;;;;;;;8.79;33.21;92722.34;4979414;28;20050;-88
2022/01/30 04:01:55;;;;;;;0.40;0.40;;;;;;;9.03;32.76;92698.97;4993998;28;20438;-88
2022/01/30 04:04:35;;;;;;;0.35;0.35;;;;;;;8.99;32.86;92724.06;4977540;28;20693;-88
2022/01/30 04:07:16;;;;;;;0.40;0.40;;;;;;;9.26;32.80;92741.91;4997369;28;20057;-88
2022/01/30 04:10:32;;;;;;;0.30;0.30;;;;;;;9.02;32.58;92707.06;4971947;28;20117;-89
2022/01/30 04:13:15;;;;;;;1.65;0.75;;;;;;;9.15;33.01;92750.88;4980098;28;20541;-88
2022/01/30 04:16:13;;;;;;;0.90;0.57;;;;;;;8.74;33.26;92711.94;4951912;28;20054;-88
2022/01/30 04:19:04;;;;;;;0.60;0.45;;;;;;;8.64;33.11;92722.41;5008309;28;20161;-89
2022/01/30 04:22:24;;;;;;;;;;;;;;;;;;;;;
2022/01/30 04:25:09;;;;;;;0.40;0.40;;;;;;;8.65;33.16;92718.75;4975864;28;20121;-88
2022/01/30 04:28:21;;;;;;;1.17;0.50;;;;;;;8.53;33.49;92698.97;4932063;29;20046;-88
2022/01/30 04:31:24;;;;;;;;;;;;;;;;;;;;;
2022/01/30 04:34:19;;;;;;;0.73;0.50;;;;;;;9.03;32.51;92759.03;4919358;29;20157;-88
2022/01/30 04:37:25;;;;;;;0.68;0.52;;;;;;;8.59;32.64;92701.56;4920369;29;20050;-89
2022/01/30 05:03:17;;;;;;;;;;;;;;;;;;;;;
2022/01/30 05:06:15;;;;;;;0.68;0.50;;;;;;;8.92;30.65;92708.69;4968359;28;20053;-88
2022/01/30 05:09:18;;;;;;;2.03;0.60;;;;;;;9.01;29.87;92702.91;4905509;28;20048;-88
2022/01/30 05:12:20;;;;;;;0.32;0.32;;;;;;;9.14;28.76;92694.44;4961491;28;20046;-89
2022/01/30 05:15:23;;;;;;;;;;;;;;;;;;;;;
2022/01/30 05:18:15;;;;;;;0.50;0.50;;;;;;;9.43;29.02;92725.84;4965856;28;20054;-88
2022/01/30 05:21:21;;;;;;;1.15;0.65;;;;;;;9.39;28.66;92730.09;4991813;28;20407;-88
2022/01/30 05:24:41;;;;;;;;;;;;;;;;;;;;;
2022/01/30 05:27:38;;;;;;;0.38;0.38;;;;;;;9.05;28.40;92686.44;4975277;28;20053;-88
2022/01/30 05:30:53;;;;;;;;;;;;;;;;;;;;;
2022/01/30 05:33:54;;;;;;;;;;;;;;;;;;;;;
2022/01/30 05:36:43;;;;;;;0.40;0.40;;;;;;;9.52;26.91;92705.16;4919728;29;20051;-88
2022/01/30 05:39:39;;;;;;;0.35;0.35;;;;;;;9.36;26.90;92683.59;4931553;29;20059;-88
2022/01/30 05:42:43;;;;;;;;;;;;;;;;;;;;;
2022/01/30 05:46:00;;;;;;;0.30;0.30;;;;;;;9.19;27.06;92676.16;4990388;28;20125;-90
2022/01/30 05:48:55;;;;;;;1.10;0.50;;;;;;;9.29;26.55;92676.06;4974505;28;20057;-90
2022/01/30 05:52:02;;;;;;;;;;;;;;;;;;;;;
2022/01/30 05:54:50;;;;;;;;;;;;;;;;;;;;;
2022/01/30 05:57:21;;;;;;;1.08;0.60;;;;;;;9.29;25.77;92670.06;5010447;28;20038;-88
2022/01/30 06:00:19;;;;;;;;;;;;;;;;;;;;;
2022/01/30 06:03:08;;;;;;;0.40;0.40;;;;;;;9.32;25.42;92675.53;4994389;28;20073;-88
2022/01/30 06:06:09;;;;;;;1.17;0.60;;;;;;;9.69;24.97;92705.53;4976333;28;20045;-88
2022/01/30 06:09:11;;;;;;;1.08;0.50;;;;;;;9.71;25.03;92713.13;4973077;28;20053;-88
2022/01/30 06:11:55;;;;;;;0.82;0.60;;;;;;;9.92;24.62;92729.41;4990291;28;20589;-89
2022/01/30 06:14:48;;;;;;;;;;;;;;;;;;;;;
2022/01/30 06:17:23;;;;;;;0.88;0.60;;;;;;;9.64;23.75;92689.91;5000811;28;20121;-90
2022/01/30 06:20:48;;;;;;;;;;;;;;;;;;;;;
2022/01/30 06:23:48;;;;;;;;;;;;;;;;;;;;;
2022/01/30 06:26:58;;;;;;;0.77;0.50;;;;;;;9.79;23.46;92708.06;4994031;28;20039;-90
2022/01/30 06:30:25;;;;;;;;;;;;;;;;;;;;;
2022/01/30 06:33:39;;;;;;;0.57;0.57;;;;;;;9.63;23.33;92679.72;4998504;28;20170;-91
2022/01/30 06:36:31;;;;;;;0.98;0.52;;;;;;;9.69;23.08;92676.78;4993461;28;20395;-90
2022/01/30 06:39:40;;;;;;;0.40;0.40;;;;;;;9.65;23.02;92682.84;4918905;29;20104;-89
2022/01/30 06:42:47;;;;;;;;;;;;;;;;;;;;;
2022/01/30 06:49:16;;;;;;;0.50;0.50;;;;;;;9.70;22.13;92685.41;5015548;28;20053;-90
2022/01/30 06:52:16;;;;;;;;;;;;;;;;;;;;;
2022/01/30 06:55:14;;;;;;;0.63;0.57;;;;;;;9.89;22.44;92722.88;5016078;28;20045;-91
2022/01/30 06:58:28;;;;;;;;;;;;;;;;;;;;;
2022/01/30 07:01:32;;;;;;;0.50;0.50;;;;;;;9.61;22.29;92682.59;5016112;28;20562;-90
2022/01/30 07:04:48;;;;;;;0.65;0.52;;;;;;;9.86;21.89;92720.84;5000605;28;20088;-90
2022/01/30 07:07:54;;;;;;;;;;;;;;;;;;;;;
2022/01/30 07:10:39;;;;;;;0.47;0.47;;;;;;;13.68;18.04;92711.59;5014395;28;20498;-89
2022/01/30 07:13:47;;;;;;;1.38;0.80;;;;;;;15.99;16.10;92737.72;4953506;28;20119;-89
2022/01/30 07:16:21;;;;;;;0.50;0.50;;;;;;;17.57;14.87;92708.72;4982055;28;20061;-89
2022/01/30 07:19:17;;;;;;;;;;;;;;;;;;;;;
2022/01/30 07:22:32;;;;;;;0.50;0.50;;;;;;;20.27;12.46;92684.03;5013099;28;20128;-90
2022/01/30 07:25:34;;;;;;;;;;;;;;;;;;;;;
2022/01/30 07:28:41;;;;;;;0.57;0.50;;;;;;;22.78;10.80;92699.91;5015531;28;20287;-89
2022/01/30 07:32:01;;;;;;;;;;;;;;;;;;;;;
2022/01/30 07:35:05;;;;;;;;;;;;;;;;;;;;;
2022/01/30 07:38:03;;;;;;;0.98;0.60;;;;;;;25.06;8.49;92674.38;4996853;28;20072;-89
2022/01/30 07:40:44;;;;;;;0.80;0.80;;;;;;;26.36;7.99;92671.16;5015861;28;20042;-90
2022/01/30 07:47:19;;;;;;;0.70;0.70;;;;;;;27.39;7.23;92701.91;4993876;28;20049;-89
2022/01/30 07:50:58;;;;;;;;;;;;;;;;;;;;;
2022/01/30 07:53:58;;;;;;;0.80;0.70;;;;;;;29.36;6.19;92691.31;4922880;29;20058;-93
2022/01/30 08:00:46;;;;;;;0.98;0.77;;;;;;;30.33;6.20;92680.28;4932978;29;20065;-94
2022/01/30 08:04:08;;;;;;;;;;;;;;;;;;;;;
2022/01/30 08:07:31;;;;;;;;;;;;;;;;;;;;;
2022/01/30 08:10:25;;;;;;;0.77;0.70;;;;;;;29.47;5.79;92708.16;4965419;28;20038;-92
2022/01/30 08:17:20;;;;;;;;;;;;;;;;;;;;;
2022/01/30 08:20:34;;;;;;;1.50;0.98;;;;;;;29.85;5.11;92702.81;5001951;28;20484;-93
2022/01/30 08:24:03;;;;;;;1.42;0.90;;;;;;;31.62;5.44;92720.84;4996128;28;20046;-94
2022/01/30 08:30:45;;;;;;;;;;;;;;;;;;;;;
2022/01/30 08:34:02;;;;;;;;;;;;;;;;;;;;;
2022/01/30 08:37:35;;;;;;;;;;;;;;;;;;;;;
2022/01/30 08:40:42;;;;;;;0.70;0.70;;;;;;;27.30;6.63;92687.34;4936405;29;20054;-93
2022/01/30 08:44:00;;;;;;;0.98;0.68;;;;;;;26.24;7.23;92698.34;4919655;29;20501;-94
2022/01/30 08:46:56;;;;;;;;;;;;;;;;;;;;;
2022/01/30 08:49:45;;;;;;;;;;;;;;;;;;;;;
2022/01/30 08:56:28;;;;;;;;;;;;;;;;;;;;;
2022/01/30 08:59:48;;;;;;;;;;;;;;;;;;;;;
2022/01/30 09:03:38;;;;;;;;;;;;;;;;;;;;;
2022/01/30 09:07:17;;;;;;;;;;;;;;;;;;;;;
2022/01/30 09:10:16;;;;;;;2.92;1.50;;;;;;;20.44;11.50;92766.09;4982761;28;20054;-91
2022/01/30 09:13:39;;;;;;;;;;;;;;;;;;;;;
2022/01/30 09:20:39;;;;;;;;;;;;;;;;;;;;;
2022/01/30 09:27:00;;;;;;;;;;;;;;;;;;;;;
2022/01/30 09:30:44;;;;;;;1.95;0.90;;;;;;;18.73;13.24;92738.75;4995668;28;20398;-92
2022/01/30 09:34:03;;;;;;;;;;;;;;;;;;;;;
2022/01/30 09:37:23;;;;;;;;;;;;;;;;;;;;;
2022/01/30 09:40:41;;;;;;;1.15;0.68;;;;;;;18.30;12.36;92711.63;4915206;29;20060;-91
2022/01/30 09:44:11;;;;;;;;;;;;;;;;;;;;;
2022/01/30 10:30:26;;;;;;;;;;;;;;;;;;;;;
2022/01/30 10:48:32;;;;;;;0.65;0.45;;;;;;;17.83;13.22;92762.25;4834099;23;20957;-81
2022/01/30 10:50:58;;;;;;;2.22;0.50;;;;;;;18.24;13.08;92755.34;4991417;28;20038;-81
2022/01/30 10:53:26;;;;;;;0.65;0.50;;;;;;;18.13;13.08;92756.09;5002057;28;20034;-78
2022/01/30 10:55:52;;;;;;;0.60;0.40;;;;;;;18.56;12.94;92754.88;5034705;28;20034;-80
2022/01/30 10:58:23;;;;;;;0.47;0.30;;;;;;;18.46;12.74;92746.25;5019869;28;20045;-80
2022/01/30 11:00:54;;;;;;;3.47;1.75;;;;;;;17.80;13.58;92739.03;5021043;28;20033;-78
2022/01/30 11:03:40;;;;;;;3.53;1.60;;;;;;;18.35;12.16;92753.06;5019914;28;20037;-79
2022/01/30 11:06:11;;;;;;;2.67;1.20;;;;;;;18.57;12.71;92745.81;4986611;28;20057;-80
2022/01/30 11:08:43;;;;;;;0.80;0.43;;;;;;;18.64;11.72;92732.78;4989898;28;20407;-80
2022/01/30 11:14:00;;;;;;;1.17;0.60;;;;;;;18.73;11.89;92736.09;5017499;28;20513;-80
2022/01/30 11:19:13;;;;;;;0.95;0.60;;;;;;;19.85;12.18;92721.66;5012456;28;20515;-77
2022/01/30 11:21:39;;;;;;;5.30;2.45;;;;;;;20.45;10.18;92737.66;5037954;28;20416;-77
2022/01/30 11:24:07;;;;;;;0.90;0.50;;;;;;;19.54;11.17;92728.34;5008916;28;20137;-78
2022/01/30 11:26:34;;;;;;;1.52;0.77;;;;;;;19.85;10.78;92732.28;5018502;28;20021;-79
2022/01/30 11:28:59;;;;;;;4.97;0.60;;;;;;;19.62;11.03;92722.13;5021366;28;20030;-80
2022/01/30 11:31:25;;;;;;;0.90;0.40;;;;;;;19.37;11.24;92724.06;5000988;28;20408;-77
2022/01/30 11:33:52;;;;;;;2.15;1.10;;;;;;;19.94;11.17;92719.63;5025145;28;20081;-80
2022/01/30 11:36:21;;;;;;;8.13;3.47;;;;;;;20.49;9.35;92711.91;4999596;28;20069;-79
2022/01/30 11:38:47;;;;;;;1.40;0.80;;;;;;;20.51;10.93;92710.47;5018352;28;20048;-79
2022/01/30 11:41:18;;;;;;;0.75;0.47;;;;;;;20.61;10.23;92703.91;5017369;28;20402;-79
2022/01/30 11:44:18;;;;;;;1.05;0.50;;;;;;;19.42;11.59;92704.47;5017140;28;20068;-79
2022/01/30 11:46:51;;;;;;;1.67;0.90;;;;;;;19.04;12.38;92700.34;4989189;28;20132;-79
2022/01/30 11:49:18;;;;;;;1.92;0.90;;;;;;;18.86;14.09;92686.53;5027389;28;20063;-80
2022/01/30 11:51:54;;;;;;;2.85;1.20;;;;;;;19.52;13.66;92698.69;5028235;28;20501;-82
2022/01/30 11:54:35;;;;;;;1.52;0.90;;;;;;;19.43;12.39;92685.56;5011569;28;20065;-82
2022/01/30 11:57:02;;;;;;;6.55;2.60;;;;;;;20.00;12.28;92683.72;5031461;28;20038;-81
2022/01/30 11:59:39;;;;;;;5.40;2.13;;;;;;;20.12;12.41;92675.69;5034352;28;20098;-80
2022/01/30 12:02:25;;;;;;;0.55;0.50;;;;;;;19.96;10.38;92682.84;5016420;28;20103;-79
2022/01/30 12:05:01;;;;;;;1.98;1.00;;;;;;;19.09;12.35;92681.53;5001694;28;20025;-77
2022/01/30 12:07:36;;;;;;;2.28;0.95;;;;;;;18.56;12.05;92678.00;5016474;28;20084;-79
2022/01/30 12:10:19;;;;;;;0.57;0.50;;;;;;;18.58;11.77;92670.50;5026109;28;20042;-77
2022/01/30 12:12:52;;;;;;;3.30;1.40;;;;;;;18.81;12.15;92676.16;5031232;28;20033;-78
2022/01/30 12:15:38;;;;;;;2.75;1.00;;;;;;;19.95;11.30;92674.13;5017566;28;20038;-78
2022/01/30 12:18:11;;;;;;;0.73;0.52;;;;;;;19.79;10.82;92659.25;5035623;28;20045;-77
2022/01/30 12:21:00;;;;;;;1.23;0.65;;;;;;;20.32;11.11;92667.81;5024650;28;20121;-77
2022/01/30 12:23:27;;;;;;;0.63;0.57;;;;;;;20.88;10.73;92664.25;5018994;28;20546;-77
2022/01/30 12:26:03;;;;;;;0.45;0.35;;;;;;;20.30;9.58;92664.75;5026902;28;20056;-77
2022/01/30 12:28:42;;;;;;;1.42;0.70;;;;;;;21.03;11.14;92667.97;5037541;28;20096;-78
2022/01/30 12:31:32;;;;;;;1.08;0.50;;;;;;;21.05;8.96;92663.84;5033377;28;20048;-78
2022/01/30 12:34:03;;;;;;;3.40;1.65;;;;;;;21.15;9.56;92646.59;5035796;28;20029;-78
2022/01/30 12:36:32;;;;;;;2.92;1.40;;;;;;;21.71;9.59;92656.88;5014707;28;20045;-78
2022/01/30 12:39:05;;;;;;;3.00;1.40;;;;;;;22.01;9.05;92649.06;5037547;28;20032;-77
2022/01/30 12:41:33;;;;;;;8.65;4.90;;;;;;;21.04;8.88;92640.25;5033438;28;20490;-78
2022/01/30 12:44:07;;;;;;;15.25;8.38;;;;;;;21.65;8.38;92636.97;5028974;28;20033;-77
2022/01/30 12:46:40;;;;;;;7.45;4.20;;;;;;;21.52;9.12;92635.56;5028731;28;20072;-77
2022/01/30 12:49:09;;;;;;;16.05;9.88;;;;;;;21.00;8.89;92624.97;5017062;28;20049;-77
2022/01/30 12:51:36;;;;;;;11.93;6.28;;;;;;;21.67;9.24;92632.06;5016242;28;20072;-77
2022/01/30 12:54:04;;;;;;;6.28;2.97;;;;;;;21.58;8.36;92623.53;5018943;28;20558;-77
2022/01/30 12:56:29;;;;;;;17.95;9.75;;;;;;;21.76;7.80;92621.97;5037440;28;20063;-78
2022/01/30 12:58:59;;;;;;;39.40;19.98;;;;;;;22.16;7.59;92620.78;4986993;28;20037;-77
2022/01/30 13:01:26;;;;;;;35.05;15.80;;;;;;;21.94;7.09;92616.19;5036744;28;20033;-77
2022/01/30 13:04:04;;;;;;;15.60;8.25;;;;;;;22.07;7.99;92614.91;5018287;28;20459;-77
2022/01/30 13:06:35;;;;;;;10.02;4.15;;;;;;;22.53;8.22;92611.50;5036479;28;20060;-78
2022/01/30 13:09:02;;;;;;;3.85;1.95;;;;;;;22.15;8.21;92605.13;5031936;28;20030;-77
2022/01/30 13:11:28;;;;;;;16.83;7.75;;;;;;;22.29;8.35;92589.41;5017738;28;20037;-77
2022/01/30 13:13:59;;;;;;;22.80;10.98;;;;;;;22.12;7.37;92589.84;5001853;28;20034;-78
2022/01/30 13:16:28;;;;;;;34.47;15.75;;;;;;;22.34;6.73;92596.34;5017306;28;20038;-78
2022/01/30 13:18:54;;;;;;;29.58;15.02;;;;;;;22.41;7.00;92583.13;5035096;28;20030;-77
2022/01/30 13:21:25;;;;;;;13.45;7.38;;;;;;;22.30;8.05;92592.84;5036308;28;20502;-78
2022/01/30 13:23:52;;;;;;;12.27;6.05;;;;;;;21.72;7.72;92585.72;5034304;28;20042;-78
2022/01/30 13:26:42;;;;;;;8.77;4.78;;;;;;;21.32;7.81;92584.97;5036486;28;20056;-78
2022/01/30 13:29:13;;;;;;;11.45;6.00;;;;;;;21.77;8.27;92578.22;5013235;28;20045;-78
2022/01/30 13:31:41;;;;;;;18.98;9.43;;;;;;;22.19;7.25;92585.41;5036046;28;20037;-77
2022/01/30 13:34:16;;;;;;;19.05;7.15;;;;;;;21.82;6.51;92572.59;5032644;28;20052;-78
2022/01/30 13:36:52;;;;;;;22.92;11.18;;;;;;;22.15;6.89;92578.47;4998694;28;20045;-78
2022/01/30 13:39:25;;;;;;;35.20;16.77;;;;;;;21.92;6.01;92570.47;5019297;28;20065;-77
2022/01/30 13:42:01;;;;;;;13.02;5.63;;;;;;;21.94;7.36;92568.22;5026924;28;20433;-77
2022/01/30 13:44:50;;;;;;;1.52;0.80;;;;;;;20.98;7.98;92583.88;5033988;28;20036;-77
2022/01/30 13:47:22;;;;;;;9.82;4.38;;;;;;;21.31;7.56;92580.75;5034268;28;20139;-77
2022/01/30 13:49:49;;;;;;;7.78;3.65;;;;;;;21.66;7.29;92585.25;5033768;28;20562;-77
2022/01/30 13:52:17;;;;;;;6.57;3.22;;;;;;;21.37;7.39;92573.25;5033804;28;20034;-77
2022/01/30 13:54:43;;;;;;;1.52;0.90;;;;;;;20.91;7.57;92586.38;5034171;28;20034;-77
2022/01/30 13:57:11;;;;;;;2.90;1.50;;;;;;;20.96;8.06;92581.56;5012352;28;20042;-76
2022/01/30 13:59:37;;;;;;;1.25;0.68;;;;;;;20.46;7.52;92582.31;5029288;28;20421;-77
2022/01/30 14:02:06;;;;;;;0.70;0.40;;;;;;;20.27;7.54;92581.16;5029958;28;20030;-77
2022/01/30 14:04:34;;;;;;;1.80;0.90;;;;;;;20.27;7.60;92572.41;5029969;28;20042;-77
2022/01/30 14:07:00;;;;;;;6.85;3.10;;;;;;;20.83;8.21;92592.66;5031198;28;20033;-77
2022/01/30 14:09:38;;;;;;;0.63;0.35;;;;;;;20.22;7.78;92586.72;5035206;28;20383;-76
2022/01/30 14:12:08;;;;;;;0.63;0.55;;;;;;;20.50;8.22;92594.59;5036038;28;20037;-78
2022/01/30 14:14:37;;;;;;;0.35;0.25;;;;;;;20.18;8.23;92596.50;5014871;28;20502;-79
2022/01/30 14:17:04;;;;;;;0.50;0.40;;;;;;;19.86;7.06;92590.38;5017292;28;20068;-77
2022/01/30 14:19:42;;;;;;;0.52;0.43;;;;;;;19.56;8.17;92593.38;5014914;28;20030;-78
2022/01/30 14:22:34;;;;;;;0.57;0.40;;;;;;;19.50;8.32;92582.22;5032025;28;20061;-77
2022/01/30 14:25:05;;;;;;;2.42;1.30;;;;;;;20.12;7.79;92588.00;5033401;28;20060;-78
2022/01/30 14:27:35;;;;;;;0.70;0.47;;;;;;;19.92;8.09;92589.00;5034022;28;20128;-78
2022/01/30 14:30:04;;;;;;;0.30;0.30;;;;;;;19.66;7.51;92592.88;5031696;28;20422;-76
2022/01/30 14:32:38;;;;;;;0.77;0.50;;;;;;;19.82;7.25;92589.53;5028740;28;20227;-76
2022/01/30 14:35:06;;;;;;;1.48;0.80;;;;;;;19.73;8.01;92587.78;5029503;28;20487;-76
2022/01/30 14:37:32;;;;;;;0.20;0.20;;;;;;;19.53;7.01;92588.75;5029548;28;20487;-76
2022/01/30 14:40:02;;;;;;;0.40;0.40;;;;;;;19.58;7.72;92585.84;5019836;28;20084;-76
2022/01/30 14:42:28;;;;;;;0.45;0.40;;;;;;;19.49;7.81;92585.22;5012158;28;20407;-76
2022/01/30 14:44:54;;;;;;;0.80;0.45;;;;;;;19.76;7.96;92587.09;5008905;28;20026;-76
2022/01/30 14:47:21;;;;;;;0.50;0.35;;;;;;;19.81;7.92;92590.63;5027213;28;20491;-76
2022/01/30 14:49:47;;;;;;;0.52;0.40;;;;;;;19.32;7.48;92595.03;5036831;28;20049;-76
2022/01/30 14:52:14;;;;;;;0.52;0.40;;;;;;;19.16;7.83;92591.53;5028846;28;20077;-76
2022/01/30 14:54:39;;;;;;;0.45;0.45;;;;;;;19.28;8.16;92596.81;5033312;28;20030;-76
2022/01/30 14:57:06;;;;;;;0.75;0.45;;;;;;;19.17;7.28;92603.69;5031484;28;20048;-76
2022/01/30 14:59:32;;;;;;;1.27;0.60;;;;;;;19.03;7.22;92601.41;5027066;28;20094;-73
2022/01/30 15:01:58;;;;;;;0.75;0.63;;;;;;;18.46;8.01;92599.69;5014670;28;20645;-77
2022/01/30 15:04:24;;;;;;;0.60;0.30;;;;;;;18.41;7.48;92600.66;5032887;28;20033;-74
2022/01/30 15:06:50;;;;;;;0.50;0.40;;;;;;;18.29;7.22;92598.81;5032984;28;20068;-75
2022/01/30 15:09:16;;;;;;;0.52;0.30;;;;;;;18.20;8.17;92606.09;5033712;28;20065;-76
2022/01/30 15:11:42;;;;;;;0.45;0.45;;;;;;;18.47;8.12;92606.53;5035945;28;20052;-77
2022/01/30 15:14:09;;;;;;;0.20;0.20;;;;;;;18.27;7.30;92613.47;5035043;28;20017;-77
2022/01/30 15:16:49;;;;;;;0.68;0.52;;;;;;;18.12;8.01;92609.59;5032319;28;20045;-75
2022/01/30 15:19:17;;;;;;;0.40;0.30;;;;;;;18.12;8.13;92608.84;5032781;28;20079;-76
2022/01/30 15:21:44;;;;;;;0.45;0.40;;;;;;;18.14;7.73;92618.00;5011694;28;20036;-77
2022/01/30 15:24:11;;;;;;;0.60;0.50;;;;;;;18.13;7.59;92607.75;5028393;28;20041;-77
2022/01/30 15:26:37;;;;;;;0.68;0.32;;;;;;;17.61;7.51;92606.41;5014716;28;20060;-76
2022/01/30 15:29:05;;;;;;;0.73;0.50;;;;;;;17.23;7.84;92602.06;5032292;28;20119;-76
2022/01/30 15:31:31;;;;;;;1.10;0.70;;;;;;;17.10;8.44;92611.03;5031711;28;20116;-76
2022/01/30 15:33:59;;;;;;;0.43;0.30;;;;;;;16.62;8.21;92619.09;5031317;28;20191;-76
2022/01/30 15:36:25;;;;;;;1.30;0.60;;;;;;;16.48;8.85;92613.25;5031999;28;20029;-76
2022/01/30 15:38:51;;;;;;;0.47;0.43;;;;;;;16.16;8.20;92609.34;5031623;28;20401;-76
2022/01/30 15:41:17;;;;;;;2.03;0.47;;;;;;;15.94;8.64;92616.44;5032372;28;20025;-75
2022/01/30 15:43:42;;;;;;;0.90;0.52;;;;;;;15.66;9.21;92628.44;5014113;28;20136;-75
2022/01/30 15:49:06;;;;;;;0.45;0.40;;;;;;;15.40;9.04;92637.94;5007357;28;20070;-75
2022/01/30 15:51:34;;;;;;;0.60;0.50;;;;;;;15.15;8.72;92630.78;5010370;28;20068;-75
2022/01/30 15:54:01;;;;;;;0.85;0.50;;;;;;;14.94;9.08;92641.94;5011679;28;20029;-75
2022/01/30 15:56:28;;;;;;;1.15;0.30;;;;;;;14.78;9.07;92638.22;5011049;28;20034;-76
2022/01/30 15:58:54;;;;;;;0.60;0.40;;;;;;;14.68;9.00;92641.94;4989310;28;20057;-76
2022/01/30 16:01:20;;;;;;;0.85;0.32;;;;;;;14.61;8.56;92644.22;4993725;28;20060;-76
2022/01/30 16:03:45;;;;;;;0.32;0.32;;;;;;;14.54;8.88;92638.59;5011043;28;20483;-75
2022/01/30 16:06:11;;;;;;;0.40;0.35;;;;;;;14.34;9.25;92650.47;4993796;28;20085;-75
2022/01/30 16:08:42;;;;;;;0.68;0.52;;;;;;;14.26;9.38;92654.63;4985156;28;20034;-75
2022/01/30 16:16:35;;;;;;;;;;;;;;;13.95;9.31;92649.38;4976026;28;20065;-76
2022/01/30 16:19:01;;;;;;;1.55;0.40;;;;;;;13.89;9.39;92646.13;4977551;28;19914;-76
2022/01/30 16:21:27;;;;;;;0.52;0.35;;;;;;;13.79;9.40;92653.47;4994817;28;20526;-75
2022/01/30 16:23:52;;;;;;;0.30;0.30;;;;;;;13.67;9.36;92654.03;5011846;28;20026;-76
2022/01/30 16:26:18;;;;;;;0.30;0.30;;;;;;;13.62;8.95;92654.16;4994409;28;20569;-76
2022/01/30 16:28:44;;;;;;;0.68;0.45;;;;;;;13.45;9.26;92658.22;4994358;28;20124;-75
2022/01/30 16:31:09;;;;;;;0.88;0.50;;;;;;;13.34;8.93;92656.91;5011230;28;20029;-76
2022/01/30 16:33:36;;;;;;;0.40;0.32;;;;;;;13.24;9.19;92657.91;4959790;28;20042;-75
2022/01/30 16:36:01;;;;;;;0.65;0.50;;;;;;;13.33;9.24;92663.25;5011453;28;20038;-75
2022/01/30 16:38:27;;;;;;;1.75;0.60;;;;;;;13.20;8.93;92662.19;5011768;28;20040;-76
2022/01/30 16:40:53;;;;;;;0.38;0.38;;;;;;;13.05;9.42;92665.91;4994148;28;20415;-76
2022/01/30 16:43:26;;;;;;;0.52;0.40;;;;;;;13.07;9.30;92678.78;5010737;28;20080;-75
2022/01/30 16:45:58;;;;;;;0.77;0.60;;;;;;;13.07;9.15;92668.25;5011158;28;20030;-76
2022/01/30 16:48:26;;;;;;;0.30;0.30;;;;;;;12.87;9.49;92672.88;4979602;28;20037;-76
2022/01/30 16:50:52;;;;;;;0.50;0.40;;;;;;;12.73;10.07;92676.63;5012305;28;20407;-76
2022/01/30 16:53:18;;;;;;;0.47;0.43;;;;;;;12.57;9.93;92679.53;4997366;28;20044;-76
2022/01/30 16:55:44;;;;;;;0.60;0.50;;;;;;;12.49;9.81;92690.72;5031306;28;20083;-76